sensor_id;sensor_type;location;lat;lon;timestamp;temperature;humidity
81902;DHT22;71369;50.796;3.290;2024-02-14T00:00:12;9.60;99.90
81902;DHT22;71369;50.796;3.290;2024-02-14T00:02:46;9.60;99.90
81902;DHT22;71369;50.796;3.290;2024-02-14T00:05:15;9.60;99.90
81902;DHT22;71369;50.796;3.290;2024-02-14T00:07:41;9.70;99.90
81902;DHT22;71369;50.796;3.290;2024-02-14T00:10:07;9.70;99.90
81902;DHT22;71369;50.796;3.290;2024-02-14T00:12:34;9.70;99.90
81902;DHT22;71369;50.796;3.290;2024-02-14T00:15:01;9.80;99.90
81902;DHT22;71369;50.796;3.290;2024-02-14T00:17:29;9.70;99.90
81902;DHT22;71369;50.796;3.290;2024-02-14T00:19:55;9.70;99.90
81902;DHT22;71369;50.796;3.290;2024-02-14T00:22:21;9.80;99.90
81902;DHT22;71369;50.796;3.290;2024-02-14T00:24:47;9.70;99.90
81902;DHT22;71369;50.796;3.290;2024-02-14T00:27:12;9.70;99.90
81902;DHT22;71369;50.796;3.290;2024-02-14T00:29:40;9.80;99.90
81902;DHT22;71369;50.796;3.290;2024-02-14T00:32:06;9.80;99.90
81902;DHT22;71369;50.796;3.290;2024-02-14T00:34:32;9.80;99.90
81902;DHT22;71369;50.796;3.290;2024-02-14T00:36:59;9.80;99.90
81902;DHT22;71369;50.796;3.290;2024-02-14T00:39:24;9.80;99.90
81902;DHT22;71369;50.796;3.290;2024-02-14T00:41:50;9.80;99.90
81902;DHT22;71369;50.796;3.290;2024-02-14T00:44:18;9.80;99.90
81902;DHT22;71369;50.796;3.290;2024-02-14T00:46:45;9.70;99.90
81902;DHT22;71369;50.796;3.290;2024-02-14T00:49:11;9.80;99.90
81902;DHT22;71369;50.796;3.290;2024-02-14T00:51:37;9.70;99.90
81902;DHT22;71369;50.796;3.290;2024-02-14T00:54:06;9.70;99.90
81902;DHT22;71369;50.796;3.290;2024-02-14T00:56:32;9.80;99.90
81902;DHT22;71369;50.796;3.290;2024-02-14T00:58:58;9.80;99.90
81902;DHT22;71369;50.796;3.290;2024-02-14T01:01:24;9.80;99.90
81902;DHT22;71369;50.796;3.290;2024-02-14T01:03:49;9.80;99.90
81902;DHT22;71369;50.796;3.290;2024-02-14T01:06:15;9.90;99.90
81902;DHT22;71369;50.796;3.290;2024-02-14T01:08:41;9.90;99.90
81902;DHT22;71369;50.796;3.290;2024-02-14T01:11:08;9.90;99.90
81902;DHT22;71369;50.796;3.290;2024-02-14T01:13:34;9.90;99.90
81902;DHT22;71369;50.796;3.290;2024-02-14T01:15:59;9.90;99.90
81902;DHT22;71369;50.796;3.290;2024-02-14T01:18:25;9.90;99.90
81902;DHT22;71369;50.796;3.290;2024-02-14T01:20:51;10.00;99.90
81902;DHT22;71369;50.796;3.290;2024-02-14T01:23:16;10.00;99.90
81902;DHT22;71369;50.796;3.290;2024-02-14T01:25:42;10.00;99.90
81902;DHT22;71369;50.796;3.290;2024-02-14T01:28:09;10.00;99.90
81902;DHT22;71369;50.796;3.290;2024-02-14T01:30:35;10.00;99.90
81902;DHT22;71369;50.796;3.290;2024-02-14T01:33:02;10.00;99.90
81902;DHT22;71369;50.796;3.290;2024-02-14T01:35:29;10.00;99.90
81902;DHT22;71369;50.796;3.290;2024-02-14T01:37:55;10.00;99.90
81902;DHT22;71369;50.796;3.290;2024-02-14T01:40:21;10.00;99.90
81902;DHT22;71369;50.796;3.290;2024-02-14T01:42:47;10.00;99.90
81902;DHT22;71369;50.796;3.290;2024-02-14T01:45:13;10.00;99.90
81902;DHT22;71369;50.796;3.290;2024-02-14T01:47:39;10.00;99.90
81902;DHT22;71369;50.796;3.290;2024-02-14T01:50:08;10.00;99.90
81902;DHT22;71369;50.796;3.290;2024-02-14T01:52:38;10.10;99.90
81902;DHT22;71369;50.796;3.290;2024-02-14T01:55:05;10.10;99.90
81902;DHT22;71369;50.796;3.290;2024-02-14T01:57:33;10.10;99.90
81902;DHT22;71369;50.796;3.290;2024-02-14T02:00:01;10.10;99.90
81902;DHT22;71369;50.796;3.290;2024-02-14T02:02:30;10.20;99.90
81902;DHT22;71369;50.796;3.290;2024-02-14T02:04:55;10.20;99.90
81902;DHT22;71369;50.796;3.290;2024-02-14T02:07:21;10.20;99.90
81902;DHT22;71369;50.796;3.290;2024-02-14T02:09:47;10.10;99.90
81902;DHT22;71369;50.796;3.290;2024-02-14T02:12:12;10.20;99.90
81902;DHT22;71369;50.796;3.290;2024-02-14T02:14:39;10.20;99.90
81902;DHT22;71369;50.796;3.290;2024-02-14T02:17:06;10.20;99.90
81902;DHT22;71369;50.796;3.290;2024-02-14T02:19:34;10.20;99.90
81902;DHT22;71369;50.796;3.290;2024-02-14T02:22:00;10.20;99.90
81902;DHT22;71369;50.796;3.290;2024-02-14T02:24:26;10.20;99.90
81902;DHT22;71369;50.796;3.290;2024-02-14T02:26:52;10.20;99.90
81902;DHT22;71369;50.796;3.290;2024-02-14T02:29:17;10.30;99.90
81902;DHT22;71369;50.796;3.290;2024-02-14T02:31:46;10.20;99.90
81902;DHT22;71369;50.796;3.290;2024-02-14T02:34:12;10.20;99.90
81902;DHT22;71369;50.796;3.290;2024-02-14T02:36:38;10.30;99.90
81902;DHT22;71369;50.796;3.290;2024-02-14T02:39:04;10.30;99.90
81902;DHT22;71369;50.796;3.290;2024-02-14T02:41:32;10.30;99.90
81902;DHT22;71369;50.796;3.290;2024-02-14T02:43:58;10.30;99.90
81902;DHT22;71369;50.796;3.290;2024-02-14T02:46:24;10.20;99.90
81902;DHT22;71369;50.796;3.290;2024-02-14T02:48:51;10.20;99.90
81902;DHT22;71369;50.796;3.290;2024-02-14T02:51:20;10.10;99.90
81902;DHT22;71369;50.796;3.290;2024-02-14T02:53:46;10.10;99.90
81902;DHT22;71369;50.796;3.290;2024-02-14T02:56:12;10.10;99.90
81902;DHT22;71369;50.796;3.290;2024-02-14T02:58:40;10.00;99.90
81902;DHT22;71369;50.796;3.290;2024-02-14T03:01:10;10.00;99.90
81902;DHT22;71369;50.796;3.290;2024-02-14T03:03:37;10.00;99.90
81902;DHT22;71369;50.796;3.290;2024-02-14T03:06:05;10.00;99.90
81902;DHT22;71369;50.796;3.290;2024-02-14T03:08:34;10.10;99.90
81902;DHT22;71369;50.796;3.290;2024-02-14T03:11:06;10.10;99.90
81902;DHT22;71369;50.796;3.290;2024-02-14T03:13:32;10.10;99.90
81902;DHT22;71369;50.796;3.290;2024-02-14T03:15:58;10.10;99.90
81902;DHT22;71369;50.796;3.290;2024-02-14T03:18:25;10.10;99.90
81902;DHT22;71369;50.796;3.290;2024-02-14T03:20:50;10.10;99.90
81902;DHT22;71369;50.796;3.290;2024-02-14T03:23:19;10.10;99.90
81902;DHT22;71369;50.796;3.290;2024-02-14T03:25:44;10.10;99.90
81902;DHT22;71369;50.796;3.290;2024-02-14T03:28:10;10.10;99.90
81902;DHT22;71369;50.796;3.290;2024-02-14T03:30:38;10.10;99.90
81902;DHT22;71369;50.796;3.290;2024-02-14T03:33:07;10.20;99.90
81902;DHT22;71369;50.796;3.290;2024-02-14T03:35:35;10.30;99.90
81902;DHT22;71369;50.796;3.290;2024-02-14T03:38:02;10.30;99.90
81902;DHT22;71369;50.796;3.290;2024-02-14T03:40:28;10.40;99.90
81902;DHT22;71369;50.796;3.290;2024-02-14T03:42:56;10.40;99.90
81902;DHT22;71369;50.796;3.290;2024-02-14T03:45:22;10.40;99.90
81902;DHT22;71369;50.796;3.290;2024-02-14T03:47:48;10.50;99.90
81902;DHT22;71369;50.796;3.290;2024-02-14T03:50:14;10.50;99.90
81902;DHT22;71369;50.796;3.290;2024-02-14T03:52:40;10.40;99.90
81902;DHT22;71369;50.796;3.290;2024-02-14T03:55:08;10.30;99.90
81902;DHT22;71369;50.796;3.290;2024-02-14T03:57:34;10.40;99.90
81902;DHT22;71369;50.796;3.290;2024-02-14T04:00:04;10.30;99.90
81902;DHT22;71369;50.796;3.290;2024-02-14T04:02:33;10.30;99.90
81902;DHT22;71369;50.796;3.290;2024-02-14T04:05:01;10.30;99.90
81902;DHT22;71369;50.796;3.290;2024-02-14T04:07:28;10.20;99.90
81902;DHT22;71369;50.796;3.290;2024-02-14T04:09:55;10.20;99.90
81902;DHT22;71369;50.796;3.290;2024-02-14T04:12:21;10.30;99.90
81902;DHT22;71369;50.796;3.290;2024-02-14T04:14:47;10.30;99.90
81902;DHT22;71369;50.796;3.290;2024-02-14T04:17:13;10.30;99.90
81902;DHT22;71369;50.796;3.290;2024-02-14T04:19:40;10.30;99.90
81902;DHT22;71369;50.796;3.290;2024-02-14T04:22:05;10.30;99.90
81902;DHT22;71369;50.796;3.290;2024-02-14T04:24:35;10.40;99.90
81902;DHT22;71369;50.796;3.290;2024-02-14T04:27:01;10.40;99.90
81902;DHT22;71369;50.796;3.290;2024-02-14T04:29:29;10.40;99.90
81902;DHT22;71369;50.796;3.290;2024-02-14T04:32:01;10.40;99.90
81902;DHT22;71369;50.796;3.290;2024-02-14T04:34:27;10.30;99.90
81902;DHT22;71369;50.796;3.290;2024-02-14T04:36:53;10.30;99.90
81902;DHT22;71369;50.796;3.290;2024-02-14T04:39:19;10.40;99.90
81902;DHT22;71369;50.796;3.290;2024-02-14T04:41:44;10.40;99.90
81902;DHT22;71369;50.796;3.290;2024-02-14T04:44:10;10.30;99.90
81902;DHT22;71369;50.796;3.290;2024-02-14T04:46:36;10.30;99.90
81902;DHT22;71369;50.796;3.290;2024-02-14T04:49:03;10.40;99.90
81902;DHT22;71369;50.796;3.290;2024-02-14T04:51:32;10.40;99.90
81902;DHT22;71369;50.796;3.290;2024-02-14T04:53:58;10.40;99.90
81902;DHT22;71369;50.796;3.290;2024-02-14T04:56:27;10.50;99.90
81902;DHT22;71369;50.796;3.290;2024-02-14T04:58:56;10.50;99.90
81902;DHT22;71369;50.796;3.290;2024-02-14T05:01:22;10.50;99.90
81902;DHT22;71369;50.796;3.290;2024-02-14T05:03:48;10.60;99.90
81902;DHT22;71369;50.796;3.290;2024-02-14T05:06:15;10.50;99.90
81902;DHT22;71369;50.796;3.290;2024-02-14T05:08:41;10.50;99.90
81902;DHT22;71369;50.796;3.290;2024-02-14T05:11:07;10.60;99.90
81902;DHT22;71369;50.796;3.290;2024-02-14T05:13:32;10.60;99.90
81902;DHT22;71369;50.796;3.290;2024-02-14T05:16:02;10.60;99.90
81902;DHT22;71369;50.796;3.290;2024-02-14T05:18:28;10.60;99.90
81902;DHT22;71369;50.796;3.290;2024-02-14T05:20:54;10.60;99.90
81902;DHT22;71369;50.796;3.290;2024-02-14T05:23:19;10.60;99.90
81902;DHT22;71369;50.796;3.290;2024-02-14T05:25:45;10.60;99.90
81902;DHT22;71369;50.796;3.290;2024-02-14T05:28:11;10.70;99.90
81902;DHT22;71369;50.796;3.290;2024-02-14T05:30:40;10.70;99.90
81902;DHT22;71369;50.796;3.290;2024-02-14T05:33:05;10.70;99.90
81902;DHT22;71369;50.796;3.290;2024-02-14T05:35:31;10.70;99.90
81902;DHT22;71369;50.796;3.290;2024-02-14T05:37:57;10.80;99.90
81902;DHT22;71369;50.796;3.290;2024-02-14T05:40:22;10.80;99.90
81902;DHT22;71369;50.796;3.290;2024-02-14T05:42:49;10.80;99.90
81902;DHT22;71369;50.796;3.290;2024-02-14T05:45:15;10.90;99.90
81902;DHT22;71369;50.796;3.290;2024-02-14T05:47:43;10.90;99.90
81902;DHT22;71369;50.796;3.290;2024-02-14T05:50:09;10.90;99.90
81902;DHT22;71369;50.796;3.290;2024-02-14T05:52:37;10.80;99.90
81902;DHT22;71369;50.796;3.290;2024-02-14T05:55:04;10.80;99.90
81902;DHT22;71369;50.796;3.290;2024-02-14T05:57:30;10.80;99.90
81902;DHT22;71369;50.796;3.290;2024-02-14T05:59:57;10.70;99.90
81902;DHT22;71369;50.796;3.290;2024-02-14T06:02:23;10.80;99.90
81902;DHT22;71369;50.796;3.290;2024-02-14T06:04:48;10.70;99.90
81902;DHT22;71369;50.796;3.290;2024-02-14T06:07:16;10.70;99.90
81902;DHT22;71369;50.796;3.290;2024-02-14T06:09:42;10.70;99.90
81902;DHT22;71369;50.796;3.290;2024-02-14T06:12:08;10.80;99.90
81902;DHT22;71369;50.796;3.290;2024-02-14T06:14:36;10.70;99.90
81902;DHT22;71369;50.796;3.290;2024-02-14T06:17:02;10.80;99.90
81902;DHT22;71369;50.796;3.290;2024-02-14T06:19:28;10.90;99.90
81902;DHT22;71369;50.796;3.290;2024-02-14T06:21:54;10.90;99.90
81902;DHT22;71369;50.796;3.290;2024-02-14T06:24:19;10.90;99.90
81902;DHT22;71369;50.796;3.290;2024-02-14T06:26:45;10.90;99.90
81902;DHT22;71369;50.796;3.290;2024-02-14T06:29:11;10.90;99.90
81902;DHT22;71369;50.796;3.290;2024-02-14T06:31:37;10.90;99.90
81902;DHT22;71369;50.796;3.290;2024-02-14T06:34:03;10.90;99.90
81902;DHT22;71369;50.796;3.290;2024-02-14T06:36:28;10.90;99.90
81902;DHT22;71369;50.796;3.290;2024-02-14T06:38:54;10.90;99.90
81902;DHT22;71369;50.796;3.290;2024-02-14T06:41:20;10.90;99.90
81902;DHT22;71369;50.796;3.290;2024-02-14T06:43:46;11.00;99.90
81902;DHT22;71369;50.796;3.290;2024-02-14T06:46:12;10.90;99.90
81902;DHT22;71369;50.796;3.290;2024-02-14T06:48:38;10.80;99.90
81902;DHT22;71369;50.796;3.290;2024-02-14T06:51:04;10.80;99.90
81902;DHT22;71369;50.796;3.290;2024-02-14T06:53:35;10.90;99.90
81902;DHT22;71369;50.796;3.290;2024-02-14T06:56:01;10.90;99.90
81902;DHT22;71369;50.796;3.290;2024-02-14T06:58:27;11.00;99.90
81902;DHT22;71369;50.796;3.290;2024-02-14T07:00:52;11.00;99.90
81902;DHT22;71369;50.796;3.290;2024-02-14T07:03:18;11.00;99.90
81902;DHT22;71369;50.796;3.290;2024-02-14T07:05:44;11.00;99.90
81902;DHT22;71369;50.796;3.290;2024-02-14T07:08:09;11.10;99.90
81902;DHT22;71369;50.796;3.290;2024-02-14T07:10:35;11.10;99.90
81902;DHT22;71369;50.796;3.290;2024-02-14T07:13:01;11.10;99.90
81902;DHT22;71369;50.796;3.290;2024-02-14T07:15:28;11.10;99.90
81902;DHT22;71369;50.796;3.290;2024-02-14T07:17:57;11.20;99.90
81902;DHT22;71369;50.796;3.290;2024-02-14T07:20:24;11.20;99.90
81902;DHT22;71369;50.796;3.290;2024-02-14T07:22:53;11.30;99.90
81902;DHT22;71369;50.796;3.290;2024-02-14T07:25:22;11.30;99.90
81902;DHT22;71369;50.796;3.290;2024-02-14T07:27:49;11.30;99.90
81902;DHT22;71369;50.796;3.290;2024-02-14T07:30:17;11.30;99.90
81902;DHT22;71369;50.796;3.290;2024-02-14T07:32:44;11.40;99.90
81902;DHT22;71369;50.796;3.290;2024-02-14T07:35:10;11.40;99.90
81902;DHT22;71369;50.796;3.290;2024-02-14T07:37:36;11.40;99.90
81902;DHT22;71369;50.796;3.290;2024-02-14T07:40:02;11.40;99.90
81902;DHT22;71369;50.796;3.290;2024-02-14T07:42:28;11.50;99.90
81902;DHT22;71369;50.796;3.290;2024-02-14T07:44:54;11.50;99.90
81902;DHT22;71369;50.796;3.290;2024-02-14T07:47:21;11.60;99.90
81902;DHT22;71369;50.796;3.290;2024-02-14T07:49:47;11.60;99.90
81902;DHT22;71369;50.796;3.290;2024-02-14T07:52:13;11.60;99.90
81902;DHT22;71369;50.796;3.290;2024-02-14T07:54:39;11.60;99.90
81902;DHT22;71369;50.796;3.290;2024-02-14T07:57:05;11.60;99.90
81902;DHT22;71369;50.796;3.290;2024-02-14T07:59:31;11.60;99.90
81902;DHT22;71369;50.796;3.290;2024-02-14T08:01:56;11.60;99.90
81902;DHT22;71369;50.796;3.290;2024-02-14T08:04:22;11.60;99.90
81902;DHT22;71369;50.796;3.290;2024-02-14T08:06:48;11.60;99.90
81902;DHT22;71369;50.796;3.290;2024-02-14T08:09:17;11.60;99.90
81902;DHT22;71369;50.796;3.290;2024-02-14T08:11:42;11.70;99.90
81902;DHT22;71369;50.796;3.290;2024-02-14T08:14:08;11.70;99.90
81902;DHT22;71369;50.796;3.290;2024-02-14T08:16:34;11.80;99.90
81902;DHT22;71369;50.796;3.290;2024-02-14T08:19:01;11.70;99.90
81902;DHT22;71369;50.796;3.290;2024-02-14T08:21:28;11.70;99.90
81902;DHT22;71369;50.796;3.290;2024-02-14T08:23:54;11.60;99.90
81902;DHT22;71369;50.796;3.290;2024-02-14T08:26:23;11.60;99.90
81902;DHT22;71369;50.796;3.290;2024-02-14T08:28:50;11.60;99.90
81902;DHT22;71369;50.796;3.290;2024-02-14T08:31:15;11.50;99.90
81902;DHT22;71369;50.796;3.290;2024-02-14T08:33:41;11.40;99.90
81902;DHT22;71369;50.796;3.290;2024-02-14T08:36:07;11.30;99.90
81902;DHT22;71369;50.796;3.290;2024-02-14T08:38:34;11.30;99.90
81902;DHT22;71369;50.796;3.290;2024-02-14T08:41:01;11.30;99.90
81902;DHT22;71369;50.796;3.290;2024-02-14T08:43:27;11.20;99.90
81902;DHT22;71369;50.796;3.290;2024-02-14T08:45:56;11.20;99.90
81902;DHT22;71369;50.796;3.290;2024-02-14T08:48:23;11.20;99.90
81902;DHT22;71369;50.796;3.290;2024-02-14T08:50:49;11.20;99.90
81902;DHT22;71369;50.796;3.290;2024-02-14T08:53:15;11.30;99.90
81902;DHT22;71369;50.796;3.290;2024-02-14T08:55:41;11.30;99.90
81902;DHT22;71369;50.796;3.290;2024-02-14T08:58:06;11.30;99.90
81902;DHT22;71369;50.796;3.290;2024-02-14T09:00:35;11.30;99.90
81902;DHT22;71369;50.796;3.290;2024-02-14T09:03:03;11.30;99.90
81902;DHT22;71369;50.796;3.290;2024-02-14T09:05:29;11.30;99.90
81902;DHT22;71369;50.796;3.290;2024-02-14T09:07:55;11.20;99.90
81902;DHT22;71369;50.796;3.290;2024-02-14T09:10:21;11.20;99.90
81902;DHT22;71369;50.796;3.290;2024-02-14T09:12:47;11.30;99.90
81902;DHT22;71369;50.796;3.290;2024-02-14T09:15:13;11.30;99.90
81902;DHT22;71369;50.796;3.290;2024-02-14T09:17:39;11.30;99.90
81902;DHT22;71369;50.796;3.290;2024-02-14T09:20:08;11.30;99.90
81902;DHT22;71369;50.796;3.290;2024-02-14T09:22:38;11.30;99.90
81902;DHT22;71369;50.796;3.290;2024-02-14T09:25:04;11.30;99.90
81902;DHT22;71369;50.796;3.290;2024-02-14T09:27:31;11.40;99.90
81902;DHT22;71369;50.796;3.290;2024-02-14T09:29:57;11.40;99.90
81902;DHT22;71369;50.796;3.290;2024-02-14T09:32:23;11.40;99.90
81902;DHT22;71369;50.796;3.290;2024-02-14T09:34:49;11.40;99.90
81902;DHT22;71369;50.796;3.290;2024-02-14T09:37:15;11.50;99.90
81902;DHT22;71369;50.796;3.290;2024-02-14T09:39:42;11.50;99.90
81902;DHT22;71369;50.796;3.290;2024-02-14T09:42:13;11.60;99.90
81902;DHT22;71369;50.796;3.290;2024-02-14T09:44:40;11.60;99.90
81902;DHT22;71369;50.796;3.290;2024-02-14T09:47:07;11.70;99.90
81902;DHT22;71369;50.796;3.290;2024-02-14T09:49:34;11.70;99.90
81902;DHT22;71369;50.796;3.290;2024-02-14T09:52:02;11.70;99.90
81902;DHT22;71369;50.796;3.290;2024-02-14T09:54:29;11.70;99.90
81902;DHT22;71369;50.796;3.290;2024-02-14T09:56:57;11.80;99.90
81902;DHT22;71369;50.796;3.290;2024-02-14T09:59:24;11.80;99.90
81902;DHT22;71369;50.796;3.290;2024-02-14T10:01:50;11.80;99.90
81902;DHT22;71369;50.796;3.290;2024-02-14T10:04:17;11.90;99.90
81902;DHT22;71369;50.796;3.290;2024-02-14T10:06:45;11.90;99.90
81902;DHT22;71369;50.796;3.290;2024-02-14T10:09:11;11.90;99.90
81902;DHT22;71369;50.796;3.290;2024-02-14T10:11:42;12.00;99.90
81902;DHT22;71369;50.796;3.290;2024-02-14T10:14:10;12.00;99.90
81902;DHT22;71369;50.796;3.290;2024-02-14T10:16:38;12.00;99.90
81902;DHT22;71369;50.796;3.290;2024-02-14T10:19:04;12.10;99.90
81902;DHT22;71369;50.796;3.290;2024-02-14T10:21:33;12.10;99.90
81902;DHT22;71369;50.796;3.290;2024-02-14T10:24:02;12.10;99.90
81902;DHT22;71369;50.796;3.290;2024-02-14T10:26:30;12.10;99.90
81902;DHT22;71369;50.796;3.290;2024-02-14T10:29:01;12.10;99.90
81902;DHT22;71369;50.796;3.290;2024-02-14T10:32:02;12.20;99.90
81902;DHT22;71369;50.796;3.290;2024-02-14T10:34:44;12.30;99.90
81902;DHT22;71369;50.796;3.290;2024-02-14T10:37:46;12.20;99.90
81902;DHT22;71369;50.796;3.290;2024-02-14T10:41:08;12.30;99.90
81902;DHT22;71369;50.796;3.290;2024-02-14T10:46:23;12.40;99.90
81902;DHT22;71369;50.796;3.290;2024-02-14T10:49:05;12.50;99.90
81902;DHT22;71369;50.796;3.290;2024-02-14T10:51:48;12.60;99.90
81902;DHT22;71369;50.796;3.290;2024-02-14T10:54:14;12.70;99.90
81902;DHT22;71369;50.796;3.290;2024-02-14T10:57:00;12.60;99.90
81902;DHT22;71369;50.796;3.290;2024-02-14T10:59:43;12.70;99.90
81902;DHT22;71369;50.796;3.290;2024-02-14T11:02:18;12.70;99.90
81902;DHT22;71369;50.796;3.290;2024-02-14T11:04:45;12.80;99.90
81902;DHT22;71369;50.796;3.290;2024-02-14T11:07:16;12.70;99.90
81902;DHT22;71369;50.796;3.290;2024-02-14T11:09:42;12.80;99.90
81902;DHT22;71369;50.796;3.290;2024-02-14T11:12:10;12.80;99.90
81902;DHT22;71369;50.796;3.290;2024-02-14T11:14:36;12.80;99.90
81902;DHT22;71369;50.796;3.290;2024-02-14T11:17:04;12.80;99.90
81902;DHT22;71369;50.796;3.290;2024-02-14T11:19:35;12.90;99.90
81902;DHT22;71369;50.796;3.290;2024-02-14T11:22:17;12.90;99.90
81902;DHT22;71369;50.796;3.290;2024-02-14T11:25:07;13.00;99.90
81902;DHT22;71369;50.796;3.290;2024-02-14T11:27:38;13.00;99.90
81902;DHT22;71369;50.796;3.290;2024-02-14T11:30:11;13.00;99.90
81902;DHT22;71369;50.796;3.290;2024-02-14T11:32:37;13.00;99.90
81902;DHT22;71369;50.796;3.290;2024-02-14T11:35:11;13.00;99.90
81902;DHT22;71369;50.796;3.290;2024-02-14T11:37:38;12.90;99.90
81902;DHT22;71369;50.796;3.290;2024-02-14T11:40:04;12.90;99.90
81902;DHT22;71369;50.796;3.290;2024-02-14T11:42:33;13.00;99.90
81902;DHT22;71369;50.796;3.290;2024-02-14T11:44:59;13.00;99.90
81902;DHT22;71369;50.796;3.290;2024-02-14T11:47:26;12.90;99.90
81902;DHT22;71369;50.796;3.290;2024-02-14T11:49:52;12.80;99.90
81902;DHT22;71369;50.796;3.290;2024-02-14T11:52:21;12.80;99.90
81902;DHT22;71369;50.796;3.290;2024-02-14T11:54:50;12.70;99.90
81902;DHT22;71369;50.796;3.290;2024-02-14T11:57:19;12.70;99.90
81902;DHT22;71369;50.796;3.290;2024-02-14T11:59:45;12.60;99.90
81902;DHT22;71369;50.796;3.290;2024-02-14T12:02:16;12.60;99.90
81902;DHT22;71369;50.796;3.290;2024-02-14T12:04:42;12.50;99.90
81902;DHT22;71369;50.796;3.290;2024-02-14T12:07:08;12.40;99.90
81902;DHT22;71369;50.796;3.290;2024-02-14T12:09:34;12.40;99.90
81902;DHT22;71369;50.796;3.290;2024-02-14T12:12:17;12.40;99.90
81902;DHT22;71369;50.796;3.290;2024-02-14T12:17:18;12.50;99.90
81902;DHT22;71369;50.796;3.290;2024-02-14T12:19:47;12.50;99.90
81902;DHT22;71369;50.796;3.290;2024-02-14T12:22:17;12.50;99.90
81902;DHT22;71369;50.796;3.290;2024-02-14T12:24:46;12.50;99.90
81902;DHT22;71369;50.796;3.290;2024-02-14T12:27:16;12.50;99.90
81902;DHT22;71369;50.796;3.290;2024-02-14T12:29:45;12.50;99.90
81902;DHT22;71369;50.796;3.290;2024-02-14T12:32:10;12.50;99.90
81902;DHT22;71369;50.796;3.290;2024-02-14T12:34:37;12.50;99.90
81902;DHT22;71369;50.796;3.290;2024-02-14T12:37:03;12.50;99.90
81902;DHT22;71369;50.796;3.290;2024-02-14T12:39:29;12.60;99.90
81902;DHT22;71369;50.796;3.290;2024-02-14T12:41:56;12.50;99.90
81902;DHT22;71369;50.796;3.290;2024-02-14T12:44:21;12.60;99.90
81902;DHT22;71369;50.796;3.290;2024-02-14T12:46:47;12.60;99.90
81902;DHT22;71369;50.796;3.290;2024-02-14T12:49:13;12.70;99.90
81902;DHT22;71369;50.796;3.290;2024-02-14T12:51:39;12.70;99.90
81902;DHT22;71369;50.796;3.290;2024-02-14T12:54:05;12.70;99.90
81902;DHT22;71369;50.796;3.290;2024-02-14T12:56:32;12.60;99.90
81902;DHT22;71369;50.796;3.290;2024-02-14T12:58:59;12.70;99.90
81902;DHT22;71369;50.796;3.290;2024-02-14T13:01:25;12.70;99.90
81902;DHT22;71369;50.796;3.290;2024-02-14T13:03:51;12.70;99.90
81902;DHT22;71369;50.796;3.290;2024-02-14T13:06:17;12.70;99.90
81902;DHT22;71369;50.796;3.290;2024-02-14T13:08:42;12.70;99.90
81902;DHT22;71369;50.796;3.290;2024-02-14T13:11:08;12.70;99.90
81902;DHT22;71369;50.796;3.290;2024-02-14T13:13:34;12.80;99.90
81902;DHT22;71369;50.796;3.290;2024-02-14T13:16:01;12.80;99.90
81902;DHT22;71369;50.796;3.290;2024-02-14T13:18:27;12.80;99.90
81902;DHT22;71369;50.796;3.290;2024-02-14T13:20:52;12.80;99.90
81902;DHT22;71369;50.796;3.290;2024-02-14T13:23:25;12.80;99.90
81902;DHT22;71369;50.796;3.290;2024-02-14T13:25:51;12.90;99.90
81902;DHT22;71369;50.796;3.290;2024-02-14T13:28:17;12.90;99.90
81902;DHT22;71369;50.796;3.290;2024-02-14T13:30:43;12.90;99.90
81902;DHT22;71369;50.796;3.290;2024-02-14T13:33:09;12.90;99.90
81902;DHT22;71369;50.796;3.290;2024-02-14T13:35:37;12.90;99.90
81902;DHT22;71369;50.796;3.290;2024-02-14T13:38:05;12.90;99.90
81902;DHT22;71369;50.796;3.290;2024-02-14T13:40:31;13.00;99.90
81902;DHT22;71369;50.796;3.290;2024-02-14T13:42:57;13.00;99.90
81902;DHT22;71369;50.796;3.290;2024-02-14T13:45:24;13.00;99.90
81902;DHT22;71369;50.796;3.290;2024-02-14T13:47:50;13.00;99.90
81902;DHT22;71369;50.796;3.290;2024-02-14T13:50:16;13.00;99.90
81902;DHT22;71369;50.796;3.290;2024-02-14T13:52:42;13.10;99.90
81902;DHT22;71369;50.796;3.290;2024-02-14T13:55:08;13.10;99.90
81902;DHT22;71369;50.796;3.290;2024-02-14T13:57:36;13.10;99.90
81902;DHT22;71369;50.796;3.290;2024-02-14T14:00:07;13.00;99.90
81902;DHT22;71369;50.796;3.290;2024-02-14T14:02:37;13.10;99.90
81902;DHT22;71369;50.796;3.290;2024-02-14T14:05:15;13.00;99.90
81902;DHT22;71369;50.796;3.290;2024-02-14T14:07:41;13.10;99.90
81902;DHT22;71369;50.796;3.290;2024-02-14T14:10:08;13.10;99.90
81902;DHT22;71369;50.796;3.290;2024-02-14T14:12:37;13.10;99.90
81902;DHT22;71369;50.796;3.290;2024-02-14T14:15:04;13.10;99.90
81902;DHT22;71369;50.796;3.290;2024-02-14T14:17:31;13.10;99.90
81902;DHT22;71369;50.796;3.290;2024-02-14T14:19:57;13.20;99.90
81902;DHT22;71369;50.796;3.290;2024-02-14T14:22:22;13.20;99.90
81902;DHT22;71369;50.796;3.290;2024-02-14T14:24:48;13.20;99.90
81902;DHT22;71369;50.796;3.290;2024-02-14T14:27:14;13.30;99.90
81902;DHT22;71369;50.796;3.290;2024-02-14T14:29:40;13.30;99.90
81902;DHT22;71369;50.796;3.290;2024-02-14T14:32:10;13.40;99.90
81902;DHT22;71369;50.796;3.290;2024-02-14T14:34:36;13.40;99.90
81902;DHT22;71369;50.796;3.290;2024-02-14T14:37:05;13.30;99.90
81902;DHT22;71369;50.796;3.290;2024-02-14T14:39:38;13.30;99.90
81902;DHT22;71369;50.796;3.290;2024-02-14T14:42:11;13.30;99.90
81902;DHT22;71369;50.796;3.290;2024-02-14T14:44:39;13.30;99.90
81902;DHT22;71369;50.796;3.290;2024-02-14T14:47:07;13.20;99.90
81902;DHT22;71369;50.796;3.290;2024-02-14T14:49:42;13.20;99.90
81902;DHT22;71369;50.796;3.290;2024-02-14T14:52:08;13.30;99.90
81902;DHT22;71369;50.796;3.290;2024-02-14T14:54:34;13.20;99.90
81902;DHT22;71369;50.796;3.290;2024-02-14T14:56:59;13.20;99.90
81902;DHT22;71369;50.796;3.290;2024-02-14T14:59:29;13.30;99.90
81902;DHT22;71369;50.796;3.290;2024-02-14T15:01:55;13.20;99.90
81902;DHT22;71369;50.796;3.290;2024-02-14T15:04:20;13.20;99.90
81902;DHT22;71369;50.796;3.290;2024-02-14T15:06:46;13.20;99.90
81902;DHT22;71369;50.796;3.290;2024-02-14T15:09:15;13.10;99.90
81902;DHT22;71369;50.796;3.290;2024-02-14T15:11:41;13.10;99.90
81902;DHT22;71369;50.796;3.290;2024-02-14T15:14:07;13.00;99.90
81902;DHT22;71369;50.796;3.290;2024-02-14T15:16:33;13.00;99.90
81902;DHT22;71369;50.796;3.290;2024-02-14T15:18:58;13.00;99.90
81902;DHT22;71369;50.796;3.290;2024-02-14T15:21:27;12.90;99.90
81902;DHT22;71369;50.796;3.290;2024-02-14T15:23:53;13.00;99.90
81902;DHT22;71369;50.796;3.290;2024-02-14T15:26:24;13.00;99.90
81902;DHT22;71369;50.796;3.290;2024-02-14T15:29:18;13.00;99.90
81902;DHT22;71369;50.796;3.290;2024-02-14T15:32:05;13.00;99.90
81902;DHT22;71369;50.796;3.290;2024-02-14T15:34:50;13.00;99.90
81902;DHT22;71369;50.796;3.290;2024-02-14T15:37:17;13.00;99.90
81902;DHT22;71369;50.796;3.290;2024-02-14T15:39:43;13.10;99.90